sensor_id;sensor_type;location;lat;lon;timestamp;P1;durP1;ratioP1;P2;durP2;ratioP2
70487;SDS011;57976;48.174;16.370;2023-08-06T00:00:37;1.30;;;0.40;;
70487;SDS011;57976;48.174;16.370;2023-08-06T00:02:42;0.90;;;0.30;;
70487;SDS011;57976;48.174;16.370;2023-08-06T00:04:47;1.40;;;0.30;;
70487;SDS011;57976;48.174;16.370;2023-08-06T00:06:51;1.10;;;0.30;;
70487;SDS011;57976;48.174;16.370;2023-08-06T00:08:56;1.30;;;0.40;;
70487;SDS011;57976;48.174;16.370;2023-08-06T00:11:01;1.30;;;0.20;;
70487;SDS011;57976;48.174;16.370;2023-08-06T00:13:05;1.00;;;0.30;;
70487;SDS011;57976;48.174;16.370;2023-08-06T00:15:11;1.00;;;0.30;;
70487;SDS011;57976;48.174;16.370;2023-08-06T00:17:15;1.00;;;0.30;;
70487;SDS011;57976;48.174;16.370;2023-08-06T00:19:20;1.50;;;0.20;;
70487;SDS011;57976;48.174;16.370;2023-08-06T00:21:25;1.70;;;0.30;;
70487;SDS011;57976;48.174;16.370;2023-08-06T00:23:30;1.10;;;0.30;;
70487;SDS011;57976;48.174;16.370;2023-08-06T00:25:41;0.80;;;0.10;;
70487;SDS011;57976;48.174;16.370;2023-08-06T00:27:45;0.80;;;0.20;;
70487;SDS011;57976;48.174;16.370;2023-08-06T00:29:50;1.00;;;0.30;;
70487;SDS011;57976;48.174;16.370;2023-08-06T00:31:55;1.00;;;0.30;;
70487;SDS011;57976;48.174;16.370;2023-08-06T00:34:00;1.00;;;0.30;;
70487;SDS011;57976;48.174;16.370;2023-08-06T00:36:05;1.20;;;0.30;;
70487;SDS011;57976;48.174;16.370;2023-08-06T00:38:10;1.00;;;0.30;;
70487;SDS011;57976;48.174;16.370;2023-08-06T00:40:15;1.40;;;0.30;;
70487;SDS011;57976;48.174;16.370;2023-08-06T00:42:22;1.80;;;0.30;;
70487;SDS011;57976;48.174;16.370;2023-08-06T00:44:27;1.00;;;0.30;;
70487;SDS011;57976;48.174;16.370;2023-08-06T00:46:32;1.30;;;0.30;;
70487;SDS011;57976;48.174;16.370;2023-08-06T00:48:39;1.50;;;0.40;;
70487;SDS011;57976;48.174;16.370;2023-08-06T00:50:45;1.10;;;0.30;;
70487;SDS011;57976;48.174;16.370;2023-08-06T00:52:50;1.70;;;0.40;;
70487;SDS011;57976;48.174;16.370;2023-08-06T00:54:56;1.60;;;0.30;;
70487;SDS011;57976;48.174;16.370;2023-08-06T00:57:01;0.80;;;0.30;;
70487;SDS011;57976;48.174;16.370;2023-08-06T00:59:06;1.10;;;0.30;;
70487;SDS011;57976;48.174;16.370;2023-08-06T01:03:28;1.00;;;0.30;;
70487;SDS011;57976;48.174;16.370;2023-08-06T01:05:33;1.20;;;0.30;;
70487;SDS011;57976;48.174;16.370;2023-08-06T01:07:40;1.20;;;0.30;;
70487;SDS011;57976;48.174;16.370;2023-08-06T01:09:57;1.10;;;0.30;;
70487;SDS011;57976;48.174;16.370;2023-08-06T01:12:15;1.00;;;0.30;;
70487;SDS011;57976;48.174;16.370;2023-08-06T01:14:30;1.20;;;0.30;;
70487;SDS011;57976;48.174;16.370;2023-08-06T01:16:41;1.80;;;0.20;;
70487;SDS011;57976;48.174;16.370;2023-08-06T01:18:47;1.10;;;0.30;;
70487;SDS011;57976;48.174;16.370;2023-08-06T01:20:53;1.00;;;0.20;;
70487;SDS011;57976;48.174;16.370;2023-08-06T01:22:58;1.10;;;0.30;;
70487;SDS011;57976;48.174;16.370;2023-08-06T01:25:03;0.80;;;0.20;;
70487;SDS011;57976;48.174;16.370;2023-08-06T01:27:11;0.90;;;0.20;;
70487;SDS011;57976;48.174;16.370;2023-08-06T01:29:25;0.70;;;0.20;;
70487;SDS011;57976;48.174;16.370;2023-08-06T01:31:36;1.20;;;0.30;;
70487;SDS011;57976;48.174;16.370;2023-08-06T01:33:43;0.80;;;0.30;;
70487;SDS011;57976;48.174;16.370;2023-08-06T01:35:49;0.90;;;0.30;;
70487;SDS011;57976;48.174;16.370;2023-08-06T01:37:56;1.00;;;0.20;;
70487;SDS011;57976;48.174;16.370;2023-08-06T01:40:02;1.40;;;0.30;;
70487;SDS011;57976;48.174;16.370;2023-08-06T01:42:12;1.60;;;0.30;;
70487;SDS011;57976;48.174;16.370;2023-08-06T01:44:17;1.00;;;0.20;;
70487;SDS011;57976;48.174;16.370;2023-08-06T01:46:22;1.60;;;0.30;;
70487;SDS011;57976;48.174;16.370;2023-08-06T01:48:28;1.30;;;0.40;;
70487;SDS011;57976;48.174;16.370;2023-08-06T01:50:33;0.90;;;0.20;;
70487;SDS011;57976;48.174;16.370;2023-08-06T01:52:37;1.40;;;0.40;;
70487;SDS011;57976;48.174;16.370;2023-08-06T01:54:43;0.80;;;0.20;;
70487;SDS011;57976;48.174;16.370;2023-08-06T01:56:48;1.20;;;0.30;;
70487;SDS011;57976;48.174;16.370;2023-08-06T01:58:53;0.90;;;0.20;;
70487;SDS011;57976;48.174;16.370;2023-08-06T02:00:58;1.00;;;0.30;;
70487;SDS011;57976;48.174;16.370;2023-08-06T02:03:03;1.20;;;0.40;;
70487;SDS011;57976;48.174;16.370;2023-08-06T02:05:09;1.20;;;0.40;;
70487;SDS011;57976;48.174;16.370;2023-08-06T02:07:15;1.40;;;0.50;;
70487;SDS011;57976;48.174;16.370;2023-08-06T02:09:20;1.60;;;0.40;;
70487;SDS011;57976;48.174;16.370;2023-08-06T02:11:26;1.10;;;0.40;;
70487;SDS011;57976;48.174;16.370;2023-08-06T02:13:31;1.80;;;0.40;;
70487;SDS011;57976;48.174;16.370;2023-08-06T02:15:36;1.30;;;0.40;;
70487;SDS011;57976;48.174;16.370;2023-08-06T02:17:46;1.30;;;0.50;;
70487;SDS011;57976;48.174;16.370;2023-08-06T02:19:52;1.70;;;0.50;;
70487;SDS011;57976;48.174;16.370;2023-08-06T02:21:57;1.40;;;0.50;;
70487;SDS011;57976;48.174;16.370;2023-08-06T02:24:02;1.30;;;0.30;;
70487;SDS011;57976;48.174;16.370;2023-08-06T02:26:07;2.60;;;0.60;;
70487;SDS011;57976;48.174;16.370;2023-08-06T02:28:12;1.70;;;0.50;;
70487;SDS011;57976;48.174;16.370;2023-08-06T02:30:17;2.10;;;0.50;;
70487;SDS011;57976;48.174;16.370;2023-08-06T02:32:22;1.40;;;0.50;;
70487;SDS011;57976;48.174;16.370;2023-08-06T02:34:28;1.30;;;0.50;;
70487;SDS011;57976;48.174;16.370;2023-08-06T02:36:33;1.50;;;0.50;;
70487;SDS011;57976;48.174;16.370;2023-08-06T02:38:39;2.00;;;0.50;;
70487;SDS011;57976;48.174;16.370;2023-08-06T02:40:44;1.60;;;0.50;;
70487;SDS011;57976;48.174;16.370;2023-08-06T02:42:49;1.70;;;0.60;;
70487;SDS011;57976;48.174;16.370;2023-08-06T02:44:54;1.80;;;0.40;;
70487;SDS011;57976;48.174;16.370;2023-08-06T02:46:59;2.90;;;0.70;;
70487;SDS011;57976;48.174;16.370;2023-08-06T02:49:05;2.00;;;0.60;;
70487;SDS011;57976;48.174;16.370;2023-08-06T02:51:10;1.70;;;0.60;;
70487;SDS011;57976;48.174;16.370;2023-08-06T02:53:16;2.00;;;0.70;;
70487;SDS011;57976;48.174;16.370;2023-08-06T02:55:23;2.00;;;0.60;;
70487;SDS011;57976;48.174;16.370;2023-08-06T02:57:28;2.10;;;0.60;;
70487;SDS011;57976;48.174;16.370;2023-08-06T02:59:33;2.80;;;0.60;;
70487;SDS011;57976;48.174;16.370;2023-08-06T03:01:45;1.70;;;0.50;;
70487;SDS011;57976;48.174;16.370;2023-08-06T03:03:55;1.80;;;0.60;;
70487;SDS011;57976;48.174;16.370;2023-08-06T03:06:05;2.40;;;0.70;;
70487;SDS011;57976;48.174;16.370;2023-08-06T03:08:16;2.10;;;0.60;;
70487;SDS011;57976;48.174;16.370;2023-08-06T03:10:21;2.10;;;0.70;;
70487;SDS011;57976;48.174;16.370;2023-08-06T03:12:27;1.70;;;0.60;;
70487;SDS011;57976;48.174;16.370;2023-08-06T03:14:33;1.80;;;0.60;;
70487;SDS011;57976;48.174;16.370;2023-08-06T03:16:39;2.20;;;0.70;;
70487;SDS011;57976;48.174;16.370;2023-08-06T03:18:44;2.30;;;0.70;;
70487;SDS011;57976;48.174;16.370;2023-08-06T03:20:49;3.00;;;0.70;;
70487;SDS011;57976;48.174;16.370;2023-08-06T03:22:55;3.50;;;0.60;;
70487;SDS011;57976;48.174;16.370;2023-08-06T03:25:00;2.20;;;0.70;;
70487;SDS011;57976;48.174;16.370;2023-08-06T03:27:06;2.20;;;0.70;;
70487;SDS011;57976;48.174;16.370;2023-08-06T03:29:12;3.00;;;1.00;;
70487;SDS011;57976;48.174;16.370;2023-08-06T03:31:17;3.60;;;1.10;;
70487;SDS011;57976;48.174;16.370;2023-08-06T03:33:23;2.50;;;0.90;;
70487;SDS011;57976;48.174;16.370;2023-08-06T03:35:28;2.90;;;0.90;;
70487;SDS011;57976;48.174;16.370;2023-08-06T03:37:34;3.30;;;1.10;;
70487;SDS011;57976;48.174;16.370;2023-08-06T03:39:39;2.80;;;1.00;;
70487;SDS011;57976;48.174;16.370;2023-08-06T03:41:44;3.90;;;1.20;;
70487;SDS011;57976;48.174;16.370;2023-08-06T03:43:50;3.50;;;1.00;;
70487;SDS011;57976;48.174;16.370;2023-08-06T03:45:59;3.20;;;1.10;;
70487;SDS011;57976;48.174;16.370;2023-08-06T03:48:04;3.70;;;1.00;;
70487;SDS011;57976;48.174;16.370;2023-08-06T03:50:09;3.70;;;1.10;;
70487;SDS011;57976;48.174;16.370;2023-08-06T03:52:15;2.90;;;1.10;;
70487;SDS011;57976;48.174;16.370;2023-08-06T03:54:20;3.60;;;1.20;;
70487;SDS011;57976;48.174;16.370;2023-08-06T03:56:25;3.10;;;1.20;;
70487;SDS011;57976;48.174;16.370;2023-08-06T03:58:30;4.00;;;1.40;;
70487;SDS011;57976;48.174;16.370;2023-08-06T04:00:35;4.20;;;1.70;;
70487;SDS011;57976;48.174;16.370;2023-08-06T04:02:43;3.80;;;1.70;;
70487;SDS011;57976;48.174;16.370;2023-08-06T04:04:49;3.60;;;1.30;;
70487;SDS011;57976;48.174;16.370;2023-08-06T04:06:55;3.60;;;1.50;;
70487;SDS011;57976;48.174;16.370;2023-08-06T04:09:00;4.30;;;1.30;;
70487;SDS011;57976;48.174;16.370;2023-08-06T04:11:06;3.90;;;1.50;;
70487;SDS011;57976;48.174;16.370;2023-08-06T04:13:11;3.20;;;1.40;;
70487;SDS011;57976;48.174;16.370;2023-08-06T04:15:16;3.30;;;1.30;;
70487;SDS011;57976;48.174;16.370;2023-08-06T04:17:21;3.90;;;1.50;;
70487;SDS011;57976;48.174;16.370;2023-08-06T04:19:27;3.30;;;1.30;;
70487;SDS011;57976;48.174;16.370;2023-08-06T04:21:32;3.40;;;1.40;;
70487;SDS011;57976;48.174;16.370;2023-08-06T04:23:37;3.70;;;1.40;;
70487;SDS011;57976;48.174;16.370;2023-08-06T04:25:43;4.10;;;1.30;;
70487;SDS011;57976;48.174;16.370;2023-08-06T04:27:49;3.80;;;1.40;;
70487;SDS011;57976;48.174;16.370;2023-08-06T04:29:54;3.40;;;1.30;;
70487;SDS011;57976;48.174;16.370;2023-08-06T04:32:00;4.60;;;1.60;;
70487;SDS011;57976;48.174;16.370;2023-08-06T04:34:07;3.60;;;1.40;;
70487;SDS011;57976;48.174;16.370;2023-08-06T04:36:13;3.80;;;1.40;;
70487;SDS011;57976;48.174;16.370;2023-08-06T04:38:18;3.50;;;1.40;;
70487;SDS011;57976;48.174;16.370;2023-08-06T04:40:23;3.80;;;1.50;;
70487;SDS011;57976;48.174;16.370;2023-08-06T04:42:30;3.60;;;1.40;;
70487;SDS011;57976;48.174;16.370;2023-08-06T04:44:36;3.70;;;1.40;;
70487;SDS011;57976;48.174;16.370;2023-08-06T04:46:41;3.80;;;1.40;;
70487;SDS011;57976;48.174;16.370;2023-08-06T04:48:48;3.80;;;1.40;;
70487;SDS011;57976;48.174;16.370;2023-08-06T04:50:53;6.50;;;1.50;;
70487;SDS011;57976;48.174;16.370;2023-08-06T04:52:59;4.30;;;1.50;;
70487;SDS011;57976;48.174;16.370;2023-08-06T04:55:05;3.90;;;1.70;;
70487;SDS011;57976;48.174;16.370;2023-08-06T04:57:10;3.90;;;1.30;;
70487;SDS011;57976;48.174;16.370;2023-08-06T04:59:15;3.20;;;1.20;;
70487;SDS011;57976;48.174;16.370;2023-08-06T05:01:20;4.90;;;1.50;;
70487;SDS011;57976;48.174;16.370;2023-08-06T05:03:25;4.10;;;1.50;;
70487;SDS011;57976;48.174;16.370;2023-08-06T05:05:31;4.10;;;1.20;;
70487;SDS011;57976;48.174;16.370;2023-08-06T05:07:36;3.90;;;1.30;;
70487;SDS011;57976;48.174;16.370;2023-08-06T05:09:41;3.70;;;1.50;;
70487;SDS011;57976;48.174;16.370;2023-08-06T05:11:46;3.70;;;1.40;;
70487;SDS011;57976;48.174;16.370;2023-08-06T05:13:52;3.70;;;1.30;;
70487;SDS011;57976;48.174;16.370;2023-08-06T05:15:57;4.30;;;1.60;;
70487;SDS011;57976;48.174;16.370;2023-08-06T05:18:02;3.50;;;1.40;;
70487;SDS011;57976;48.174;16.370;2023-08-06T05:20:12;3.80;;;1.40;;
70487;SDS011;57976;48.174;16.370;2023-08-06T05:22:18;4.00;;;1.40;;
70487;SDS011;57976;48.174;16.370;2023-08-06T05:24:23;3.60;;;1.30;;
70487;SDS011;57976;48.174;16.370;2023-08-06T05:26:28;3.40;;;1.30;;
70487;SDS011;57976;48.174;16.370;2023-08-06T05:28:33;4.40;;;1.50;;
70487;SDS011;57976;48.174;16.370;2023-08-06T05:30:40;4.20;;;1.50;;
70487;SDS011;57976;48.174;16.370;2023-08-06T05:32:45;3.50;;;1.20;;
70487;SDS011;57976;48.174;16.370;2023-08-06T05:34:50;4.10;;;1.40;;
70487;SDS011;57976;48.174;16.370;2023-08-06T05:36:55;3.90;;;1.20;;
70487;SDS011;57976;48.174;16.370;2023-08-06T05:39:00;4.60;;;1.50;;
70487;SDS011;57976;48.174;16.370;2023-08-06T05:41:08;3.80;;;1.30;;
70487;SDS011;57976;48.174;16.370;2023-08-06T05:43:14;4.10;;;1.30;;
70487;SDS011;57976;48.174;16.370;2023-08-06T05:45:19;3.70;;;1.40;;
70487;SDS011;57976;48.174;16.370;2023-08-06T05:47:24;4.30;;;1.50;;
70487;SDS011;57976;48.174;16.370;2023-08-06T05:49:29;4.20;;;1.30;;
70487;SDS011;57976;48.174;16.370;2023-08-06T05:51:35;4.00;;;1.40;;
70487;SDS011;57976;48.174;16.370;2023-08-06T05:53:42;3.90;;;1.20;;
70487;SDS011;57976;48.174;16.370;2023-08-06T05:55:48;3.80;;;1.50;;
70487;SDS011;57976;48.174;16.370;2023-08-06T05:57:53;3.60;;;1.30;;
70487;SDS011;57976;48.174;16.370;2023-08-06T05:59:58;3.90;;;1.40;;
70487;SDS011;57976;48.174;16.370;2023-08-06T06:02:14;3.10;;;1.10;;
70487;SDS011;57976;48.174;16.370;2023-08-06T06:04:19;3.40;;;1.30;;
70487;SDS011;57976;48.174;16.370;2023-08-06T06:06:25;3.70;;;1.40;;
70487;SDS011;57976;48.174;16.370;2023-08-06T06:08:30;3.50;;;1.30;;
70487;SDS011;57976;48.174;16.370;2023-08-06T06:10:35;4.10;;;1.40;;
70487;SDS011;57976;48.174;16.370;2023-08-06T06:12:41;3.60;;;1.40;;
70487;SDS011;57976;48.174;16.370;2023-08-06T06:14:46;3.60;;;1.30;;
70487;SDS011;57976;48.174;16.370;2023-08-06T06:16:51;3.60;;;1.40;;
70487;SDS011;57976;48.174;16.370;2023-08-06T06:18:56;3.90;;;1.50;;
70487;SDS011;57976;48.174;16.370;2023-08-06T06:21:01;4.10;;;1.40;;
70487;SDS011;57976;48.174;16.370;2023-08-06T06:23:06;3.70;;;1.30;;
70487;SDS011;57976;48.174;16.370;2023-08-06T06:25:11;4.00;;;1.50;;
70487;SDS011;57976;48.174;16.370;2023-08-06T06:27:16;3.20;;;1.30;;
70487;SDS011;57976;48.174;16.370;2023-08-06T06:29:21;3.20;;;1.20;;
70487;SDS011;57976;48.174;16.370;2023-08-06T06:31:26;3.30;;;1.30;;
70487;SDS011;57976;48.174;16.370;2023-08-06T06:33:31;3.80;;;1.30;;
70487;SDS011;57976;48.174;16.370;2023-08-06T06:35:37;3.10;;;1.20;;
70487;SDS011;57976;48.174;16.370;2023-08-06T06:37:43;3.30;;;1.20;;
70487;SDS011;57976;48.174;16.370;2023-08-06T06:39:48;3.90;;;1.50;;
70487;SDS011;57976;48.174;16.370;2023-08-06T06:41:53;4.30;;;1.50;;
70487;SDS011;57976;48.174;16.370;2023-08-06T06:44:00;3.70;;;1.30;;
70487;SDS011;57976;48.174;16.370;2023-08-06T06:46:06;3.50;;;1.40;;
70487;SDS011;57976;48.174;16.370;2023-08-06T06:48:11;4.10;;;1.50;;
70487;SDS011;57976;48.174;16.370;2023-08-06T06:50:16;4.20;;;1.40;;
70487;SDS011;57976;48.174;16.370;2023-08-06T06:52:21;3.80;;;1.40;;
70487;SDS011;57976;48.174;16.370;2023-08-06T06:54:26;4.40;;;1.60;;
70487;SDS011;57976;48.174;16.370;2023-08-06T06:56:31;4.20;;;1.50;;
70487;SDS011;57976;48.174;16.370;2023-08-06T06:58:36;5.20;;;1.50;;
70487;SDS011;57976;48.174;16.370;2023-08-06T07:00:42;3.60;;;1.30;;
70487;SDS011;57976;48.174;16.370;2023-08-06T07:02:47;4.20;;;1.50;;
70487;SDS011;57976;48.174;16.370;2023-08-06T07:04:52;3.80;;;1.30;;
70487;SDS011;57976;48.174;16.370;2023-08-06T07:06:57;3.50;;;1.40;;
70487;SDS011;57976;48.174;16.370;2023-08-06T07:09:02;3.50;;;1.50;;
70487;SDS011;57976;48.174;16.370;2023-08-06T07:11:07;3.60;;;1.30;;
70487;SDS011;57976;48.174;16.370;2023-08-06T07:13:12;3.50;;;1.20;;
70487;SDS011;57976;48.174;16.370;2023-08-06T07:15:17;3.10;;;1.20;;
70487;SDS011;57976;48.174;16.370;2023-08-06T07:17:23;3.10;;;1.30;;
70487;SDS011;57976;48.174;16.370;2023-08-06T07:19:28;3.70;;;1.50;;
70487;SDS011;57976;48.174;16.370;2023-08-06T07:21:33;3.20;;;1.20;;
70487;SDS011;57976;48.174;16.370;2023-08-06T07:23:38;5.00;;;1.20;;
70487;SDS011;57976;48.174;16.370;2023-08-06T07:25:44;3.00;;;1.10;;
70487;SDS011;57976;48.174;16.370;2023-08-06T07:27:49;3.20;;;1.10;;
70487;SDS011;57976;48.174;16.370;2023-08-06T07:29:54;3.90;;;1.40;;
70487;SDS011;57976;48.174;16.370;2023-08-06T07:32:00;3.60;;;1.30;;
70487;SDS011;57976;48.174;16.370;2023-08-06T07:34:06;3.40;;;1.20;;
70487;SDS011;57976;48.174;16.370;2023-08-06T07:36:11;2.90;;;1.10;;
70487;SDS011;57976;48.174;16.370;2023-08-06T07:38:17;3.60;;;1.30;;
70487;SDS011;57976;48.174;16.370;2023-08-06T07:40:23;3.80;;;1.30;;
70487;SDS011;57976;48.174;16.370;2023-08-06T07:42:30;3.50;;;1.40;;
70487;SDS011;57976;48.174;16.370;2023-08-06T07:44:35;3.60;;;1.40;;
70487;SDS011;57976;48.174;16.370;2023-08-06T07:46:43;4.00;;;1.50;;
70487;SDS011;57976;48.174;16.370;2023-08-06T07:48:50;3.30;;;1.30;;
70487;SDS011;57976;48.174;16.370;2023-08-06T07:50:55;4.10;;;1.40;;
70487;SDS011;57976;48.174;16.370;2023-08-06T07:53:00;4.60;;;1.60;;
70487;SDS011;57976;48.174;16.370;2023-08-06T07:55:05;4.50;;;1.40;;
70487;SDS011;57976;48.174;16.370;2023-08-06T07:57:11;3.70;;;1.50;;
70487;SDS011;57976;48.174;16.370;2023-08-06T07:59:16;3.30;;;1.30;;
70487;SDS011;57976;48.174;16.370;2023-08-06T08:01:22;4.00;;;1.20;;
70487;SDS011;57976;48.174;16.370;2023-08-06T08:03:27;4.20;;;1.70;;
70487;SDS011;57976;48.174;16.370;2023-08-06T08:05:32;3.90;;;1.40;;
70487;SDS011;57976;48.174;16.370;2023-08-06T08:07:37;3.70;;;1.50;;
70487;SDS011;57976;48.174;16.370;2023-08-06T08:09:42;4.00;;;1.50;;
70487;SDS011;57976;48.174;16.370;2023-08-06T08:11:48;4.40;;;1.50;;
70487;SDS011;57976;48.174;16.370;2023-08-06T08:13:53;3.50;;;1.50;;
70487;SDS011;57976;48.174;16.370;2023-08-06T08:15:58;4.00;;;1.30;;
70487;SDS011;57976;48.174;16.370;2023-08-06T08:18:04;3.50;;;1.30;;
70487;SDS011;57976;48.174;16.370;2023-08-06T08:20:10;5.00;;;1.40;;
70487;SDS011;57976;48.174;16.370;2023-08-06T08:22:15;4.10;;;1.60;;
70487;SDS011;57976;48.174;16.370;2023-08-06T08:24:20;4.70;;;1.50;;
70487;SDS011;57976;48.174;16.370;2023-08-06T08:26:26;4.00;;;1.40;;
70487;SDS011;57976;48.174;16.370;2023-08-06T08:28:31;4.40;;;1.40;;
70487;SDS011;57976;48.174;16.370;2023-08-06T08:30:36;4.80;;;1.50;;
70487;SDS011;57976;48.174;16.370;2023-08-06T08:32:43;4.30;;;2.10;;
70487;SDS011;57976;48.174;16.370;2023-08-06T08:34:48;4.20;;;1.50;;
70487;SDS011;57976;48.174;16.370;2023-08-06T08:36:53;3.70;;;1.40;;
70487;SDS011;57976;48.174;16.370;2023-08-06T08:38:59;3.50;;;1.40;;
70487;SDS011;57976;48.174;16.370;2023-08-06T08:41:04;3.60;;;1.40;;
70487;SDS011;57976;48.174;16.370;2023-08-06T08:43:09;4.10;;;1.60;;
70487;SDS011;57976;48.174;16.370;2023-08-06T08:45:16;4.40;;;1.60;;
70487;SDS011;57976;48.174;16.370;2023-08-06T08:47:31;5.00;;;1.80;;
70487;SDS011;57976;48.174;16.370;2023-08-06T08:49:37;4.50;;;1.90;;
70487;SDS011;57976;48.174;16.370;2023-08-06T08:51:44;5.00;;;1.80;;
70487;SDS011;57976;48.174;16.370;2023-08-06T08:53:52;4.30;;;1.80;;
70487;SDS011;57976;48.174;16.370;2023-08-06T08:55:58;5.00;;;2.00;;
70487;SDS011;57976;48.174;16.370;2023-08-06T08:58:04;4.20;;;1.90;;
70487;SDS011;57976;48.174;16.370;2023-08-06T09:00:09;4.30;;;1.80;;
70487;SDS011;57976;48.174;16.370;2023-08-06T09:02:15;4.60;;;1.80;;
70487;SDS011;57976;48.174;16.370;2023-08-06T09:04:24;5.20;;;1.80;;
70487;SDS011;57976;48.174;16.370;2023-08-06T09:06:37;4.40;;;1.90;;
70487;SDS011;57976;48.174;16.370;2023-08-06T09:08:47;5.30;;;1.90;;
70487;SDS011;57976;48.174;16.370;2023-08-06T09:10:54;5.00;;;1.90;;
70487;SDS011;57976;48.174;16.370;2023-08-06T09:13:01;5.10;;;2.10;;
70487;SDS011;57976;48.174;16.370;2023-08-06T09:15:07;4.40;;;1.80;;
70487;SDS011;57976;48.174;16.370;2023-08-06T09:17:12;4.40;;;2.00;;
70487;SDS011;57976;48.174;16.370;2023-08-06T09:19:20;5.50;;;2.30;;
70487;SDS011;57976;48.174;16.370;2023-08-06T09:21:27;5.50;;;2.20;;
70487;SDS011;57976;48.174;16.370;2023-08-06T09:23:33;4.50;;;2.00;;
70487;SDS011;57976;48.174;16.370;2023-08-06T09:25:39;4.60;;;2.00;;
70487;SDS011;57976;48.174;16.370;2023-08-06T09:27:45;5.40;;;2.40;;
70487;SDS011;57976;48.174;16.370;2023-08-06T09:29:51;4.90;;;2.20;;
70487;SDS011;57976;48.174;16.370;2023-08-06T09:31:56;4.90;;;2.10;;
70487;SDS011;57976;48.174;16.370;2023-08-06T09:34:01;4.90;;;2.30;;
70487;SDS011;57976;48.174;16.370;2023-08-06T09:36:16;5.00;;;2.40;;
70487;SDS011;57976;48.174;16.370;2023-08-06T09:38:21;5.40;;;2.30;;
70487;SDS011;57976;48.174;16.370;2023-08-06T09:40:29;5.40;;;2.50;;
70487;SDS011;57976;48.174;16.370;2023-08-06T09:42:37;5.60;;;2.60;;
70487;SDS011;57976;48.174;16.370;2023-08-06T09:44:45;5.40;;;2.50;;
70487;SDS011;57976;48.174;16.370;2023-08-06T09:46:57;5.30;;;2.60;;
70487;SDS011;57976;48.174;16.370;2023-08-06T09:49:08;5.40;;;2.50;;
70487;SDS011;57976;48.174;16.370;2023-08-06T09:51:13;5.30;;;2.30;;
70487;SDS011;57976;48.174;16.370;2023-08-06T09:53:31;5.50;;;2.50;;
70487;SDS011;57976;48.174;16.370;2023-08-06T09:55:50;5.00;;;2.30;;
70487;SDS011;57976;48.174;16.370;2023-08-06T09:57:56;6.60;;;2.40;;
70487;SDS011;57976;48.174;16.370;2023-08-06T10:00:03;4.80;;;2.20;;
70487;SDS011;57976;48.174;16.370;2023-08-06T10:02:14;5.30;;;2.10;;
70487;SDS011;57976;48.174;16.370;2023-08-06T10:04:21;5.20;;;2.20;;
70487;SDS011;57976;48.174;16.370;2023-08-06T10:06:40;4.90;;;2.10;;
70487;SDS011;57976;48.174;16.370;2023-08-06T10:08:46;5.20;;;2.30;;
70487;SDS011;57976;48.174;16.370;2023-08-06T10:10:51;5.10;;;2.30;;
70487;SDS011;57976;48.174;16.370;2023-08-06T10:12:58;4.60;;;2.20;;
70487;SDS011;57976;48.174;16.370;2023-08-06T10:15:06;4.90;;;2.10;;
70487;SDS011;57976;48.174;16.370;2023-08-06T10:17:16;4.40;;;1.90;;
70487;SDS011;57976;48.174;16.370;2023-08-06T10:19:21;5.50;;;2.10;;
70487;SDS011;57976;48.174;16.370;2023-08-06T10:21:26;4.50;;;2.10;;
70487;SDS011;57976;48.174;16.370;2023-08-06T10:23:34;5.30;;;2.40;;
70487;SDS011;57976;48.174;16.370;2023-08-06T10:25:42;5.60;;;2.50;;
70487;SDS011;57976;48.174;16.370;2023-08-06T10:27:57;5.60;;;2.20;;
70487;SDS011;57976;48.174;16.370;2023-08-06T10:30:23;5.40;;;2.30;;
70487;SDS011;57976;48.174;16.370;2023-08-06T10:34:57;6.10;;;2.30;;
70487;SDS011;57976;48.174;16.370;2023-08-06T10:37:02;5.10;;;2.40;;
70487;SDS011;57976;48.174;16.370;2023-08-06T10:39:08;5.00;;;2.40;;
70487;SDS011;57976;48.174;16.370;2023-08-06T10:41:32;5.30;;;2.50;;
70487;SDS011;57976;48.174;16.370;2023-08-06T10:43:37;5.10;;;2.50;;
70487;SDS011;57976;48.174;16.370;2023-08-06T10:45:45;5.60;;;2.40;;
70487;SDS011;57976;48.174;16.370;2023-08-06T10:47:57;5.10;;;2.60;;
70487;SDS011;57976;48.174;16.370;2023-08-06T10:50:04;6.20;;;2.50;;
70487;SDS011;57976;48.174;16.370;2023-08-06T10:52:11;5.60;;;2.70;;
70487;SDS011;57976;48.174;16.370;2023-08-06T10:54:16;5.60;;;2.60;;
70487;SDS011;57976;48.174;16.370;2023-08-06T10:56:21;5.60;;;2.70;;
70487;SDS011;57976;48.174;16.370;2023-08-06T10:58:30;5.10;;;2.40;;
70487;SDS011;57976;48.174;16.370;2023-08-06T11:00:36;7.80;;;2.60;;
70487;SDS011;57976;48.174;16.370;2023-08-06T11:02:41;5.30;;;2.30;;
70487;SDS011;57976;48.174;16.370;2023-08-06T11:04:47;5.80;;;2.40;;
70487;SDS011;57976;48.174;16.370;2023-08-06T11:06:53;5.70;;;2.30;;
70487;SDS011;57976;48.174;16.370;2023-08-06T11:08:58;5.50;;;2.30;;
70487;SDS011;57976;48.174;16.370;2023-08-06T11:11:10;5.80;;;2.20;;
70487;SDS011;57976;48.174;16.370;2023-08-06T11:13:17;5.80;;;2.20;;
70487;SDS011;57976;48.174;16.370;2023-08-06T11:15:23;5.20;;;2.40;;
70487;SDS011;57976;48.174;16.370;2023-08-06T11:17:28;4.70;;;2.20;;
70487;SDS011;57976;48.174;16.370;2023-08-06T11:19:35;4.30;;;1.70;;
70487;SDS011;57976;48.174;16.370;2023-08-06T11:21:40;5.30;;;2.10;;
70487;SDS011;57976;48.174;16.370;2023-08-06T11:23:46;4.30;;;1.90;;
70487;SDS011;57976;48.174;16.370;2023-08-06T11:25:51;4.80;;;2.10;;
70487;SDS011;57976;48.174;16.370;2023-08-06T11:28:00;5.70;;;2.10;;
70487;SDS011;57976;48.174;16.370;2023-08-06T11:30:08;5.00;;;2.10;;
70487;SDS011;57976;48.174;16.370;2023-08-06T11:32:15;4.30;;;1.90;;
70487;SDS011;57976;48.174;16.370;2023-08-06T11:34:20;4.90;;;2.10;;
70487;SDS011;57976;48.174;16.370;2023-08-06T11:36:32;5.30;;;2.00;;
70487;SDS011;57976;48.174;16.370;2023-08-06T11:38:39;4.80;;;2.20;;
70487;SDS011;57976;48.174;16.370;2023-08-06T11:40:44;4.90;;;1.90;;
70487;SDS011;57976;48.174;16.370;2023-08-06T11:42:50;4.60;;;2.10;;
70487;SDS011;57976;48.174;16.370;2023-08-06T11:44:56;5.10;;;2.00;;
70487;SDS011;57976;48.174;16.370;2023-08-06T11:47:01;4.20;;;1.60;;
70487;SDS011;57976;48.174;16.370;2023-08-06T11:49:07;4.50;;;2.00;;
70487;SDS011;57976;48.174;16.370;2023-08-06T11:51:13;4.50;;;1.80;;
70487;SDS011;57976;48.174;16.370;2023-08-06T11:53:18;4.10;;;1.70;;
70487;SDS011;57976;48.174;16.370;2023-08-06T11:55:24;4.70;;;2.00;;
70487;SDS011;57976;48.174;16.370;2023-08-06T11:57:30;5.40;;;2.00;;
70487;SDS011;57976;48.174;16.370;2023-08-06T11:59:36;5.60;;;2.60;;
70487;SDS011;57976;48.174;16.370;2023-08-06T12:01:42;5.50;;;2.10;;
70487;SDS011;57976;48.174;16.370;2023-08-06T12:03:47;5.90;;;2.30;;
70487;SDS011;57976;48.174;16.370;2023-08-06T12:05:53;5.50;;;2.60;;
70487;SDS011;57976;48.174;16.370;2023-08-06T12:07:58;5.90;;;2.70;;
70487;SDS011;57976;48.174;16.370;2023-08-06T12:10:05;5.70;;;2.40;;
70487;SDS011;57976;48.174;16.370;2023-08-06T12:12:11;5.60;;;2.50;;
70487;SDS011;57976;48.174;16.370;2023-08-06T12:14:16;6.10;;;2.60;;
70487;SDS011;57976;48.174;16.370;2023-08-06T12:16:21;6.20;;;2.50;;
70487;SDS011;57976;48.174;16.370;2023-08-06T12:18:28;5.40;;;2.20;;
70487;SDS011;57976;48.174;16.370;2023-08-06T12:20:33;5.40;;;2.30;;
70487;SDS011;57976;48.174;16.370;2023-08-06T12:22:38;5.10;;;2.00;;
70487;SDS011;57976;48.174;16.370;2023-08-06T12:24:43;5.30;;;2.20;;
70487;SDS011;57976;48.174;16.370;2023-08-06T12:26:49;5.60;;;2.60;;
70487;SDS011;57976;48.174;16.370;2023-08-06T12:28:54;6.20;;;2.60;;
70487;SDS011;57976;48.174;16.370;2023-08-06T12:30:59;5.80;;;2.90;;
70487;SDS011;57976;48.174;16.370;2023-08-06T12:33:04;5.80;;;2.80;;